createdAt,value
2019-01-17T00:00:23.054Z,55.50
2019-01-17T00:03:12.880Z,50.93
2019-01-17T00:05:52.729Z,60.43
2019-01-17T00:08:51.440Z,75.97
2019-01-17T00:11:40.795Z,65.00
2019-01-17T00:14:30.681Z,70.40
2019-01-17T00:17:15.357Z,77.30
2019-01-17T00:20:02.543Z,73.97
2019-01-17T00:22:54.795Z,54.80
2019-01-17T00:25:43.543Z,57.70
2019-01-17T00:28:26.042Z,58.23
2019-01-17T00:31:24.453Z,52.03
2019-01-17T00:34:14.174Z,60.07
2019-01-17T00:37:03.303Z,61.37
2019-01-17T00:39:40.774Z,56.20
2019-01-17T00:42:28.783Z,58.97
2019-01-17T00:45:13.064Z,56.57
2019-01-17T00:48:05.630Z,62.73
2019-01-17T00:50:53.627Z,57.17
2019-01-17T00:53:38.958Z,52.87
2019-01-17T00:56:27.497Z,58.83
2019-01-17T00:59:17.043Z,56.80
2019-01-17T01:02:12.750Z,53.60
2019-01-17T01:05:05.381Z,60.07
2019-01-17T01:08:09.240Z,60.13
2019-01-17T01:10:58.508Z,66.27
2019-01-17T01:13:41.141Z,69.63
2019-01-17T01:16:29.990Z,65.87
2019-01-17T01:19:19.293Z,66.90
2019-01-17T01:22:14.698Z,64.67
2019-01-17T01:24:52.164Z,62.27
2019-01-17T01:27:40.785Z,73.17
2019-01-17T01:30:35.585Z,67.53
2019-01-17T01:33:23.764Z,56.30
2019-01-17T01:36:11.700Z,59.97
2019-01-17T01:39:04.796Z,60.33
2019-01-17T01:42:00.227Z,54.53
2019-01-17T01:45:07.409Z,60.60
2019-01-17T01:48:11.875Z,54.10
2019-01-17T01:51:01.267Z,51.20
2019-01-17T01:53:31.584Z,52.73
2019-01-17T01:56:02.307Z,50.20
2019-01-17T01:58:32.654Z,60.13
2019-01-17T02:01:03.403Z,58.70
2019-01-17T02:03:33.969Z,57.03
2019-01-17T02:06:04.976Z,46.43
2019-01-17T02:08:35.280Z,46.73
2019-01-17T02:11:06.254Z,48.40
2019-01-17T02:13:36.901Z,46.03
2019-01-17T02:16:07.229Z,48.73
2019-01-17T02:18:37.608Z,53.03
2019-01-17T02:21:08.058Z,47.87
2019-01-17T02:23:38.348Z,35.73
2019-01-17T02:26:10.082Z,46.10
2019-01-17T02:28:40.409Z,43.87
2019-01-17T02:31:11.251Z,40.23
2019-01-17T02:33:41.962Z,50.43
2019-01-17T02:36:12.285Z,54.07
2019-01-17T02:38:42.818Z,42.10
2019-01-17T02:41:13.485Z,75.57
2019-01-17T02:43:43.799Z,79.03
2019-01-17T02:46:14.232Z,62.83
2019-01-17T02:48:44.925Z,65.83
2019-01-17T02:51:15.262Z,50.47
2019-01-17T02:53:45.557Z,46.17
2019-01-17T02:56:16.358Z,54.03
2019-01-17T02:58:46.842Z,44.30
2019-01-17T03:01:17.636Z,44.43
2019-01-17T03:03:47.959Z,45.03
2019-01-17T03:06:18.301Z,48.50
2019-01-17T03:08:49.066Z,49.40
2019-01-17T03:11:19.466Z,48.17
2019-01-17T03:13:49.799Z,43.77
2019-01-17T03:16:20.579Z,41.57
2019-01-17T03:18:50.921Z,38.83
2019-01-17T03:21:21.268Z,35.10
2019-01-17T03:23:51.938Z,31.23
2019-01-17T03:26:22.594Z,34.00
2019-01-17T03:28:53.104Z,32.40
2019-01-17T03:31:23.541Z,39.23
2019-01-17T03:33:54.009Z,37.93
2019-01-17T03:36:24.770Z,35.20
2019-01-17T03:38:56.397Z,39.97
2019-01-17T03:41:26.951Z,44.47
2019-01-17T03:43:57.544Z,37.80
2019-01-17T03:46:27.966Z,31.37
2019-01-17T03:48:58.253Z,35.83
2019-01-17T03:51:30.165Z,28.53
2019-01-17T03:54:00.849Z,28.93
2019-01-17T03:56:31.189Z,27.53
2019-01-17T03:59:01.789Z,28.90
2019-01-17T04:01:32.243Z,29.73
2019-01-17T04:04:02.971Z,24.07
2019-01-17T04:06:33.878Z,29.03
2019-01-17T04:09:05.621Z,38.33
2019-01-17T04:11:37.469Z,23.57
2019-01-17T04:14:08.158Z,22.17
2019-01-17T04:16:38.463Z,22.83
2019-01-17T04:19:08.822Z,38.43
2019-01-17T04:21:39.781Z,51.47
2019-01-17T04:24:10.172Z,45.17
2019-01-17T04:26:40.596Z,57.60
2019-01-17T04:29:11.255Z,48.73
2019-01-17T04:31:41.636Z,53.17
2019-01-17T04:34:12.429Z,61.00
2019-01-17T04:36:42.766Z,53.43
2019-01-17T04:39:13.168Z,60.23
2019-01-17T04:41:43.743Z,51.63
2019-01-17T04:44:14.024Z,44.93
2019-01-17T04:46:44.503Z,45.27
2019-01-17T04:49:14.897Z,47.17
2019-01-17T04:51:45.492Z,48.90
2019-01-17T04:54:15.796Z,42.17
2019-01-17T04:56:46.773Z,38.57
2019-01-17T04:59:17.248Z,40.80
2019-01-17T05:01:47.795Z,48.77
2019-01-17T05:04:18.457Z,57.70
2019-01-17T05:06:48.892Z,45.23
2019-01-17T05:09:19.638Z,38.37
2019-01-17T05:11:49.980Z,44.10
2019-01-17T05:14:20.286Z,48.33
2019-01-17T05:16:51.088Z,35.93
2019-01-17T05:19:21.617Z,38.37
2019-01-17T05:21:52.046Z,45.10
2019-01-17T05:24:22.709Z,51.67
2019-01-17T05:26:53.586Z,50.17
2019-01-17T05:29:23.904Z,43.70
2019-01-17T05:31:54.605Z,44.13
2019-01-17T05:34:25.238Z,44.03
2019-01-17T05:36:55.600Z,44.27
2019-01-17T05:39:26.154Z,39.33
2019-01-17T05:41:56.535Z,42.10
2019-01-17T05:44:27.179Z,40.27
2019-01-17T05:46:57.730Z,30.27
2019-01-17T05:49:28.008Z,32.43
2019-01-17T05:51:58.841Z,38.87
2019-01-17T05:54:29.368Z,43.80
2019-01-17T05:56:59.712Z,93.63
2019-01-17T05:59:30.138Z,71.10
2019-01-17T06:02:00.815Z,58.10
2019-01-17T06:04:31.128Z,55.57
2019-01-17T06:07:01.702Z,55.13
2019-01-17T06:09:32.448Z,44.20
2019-01-17T06:12:02.788Z,50.83
2019-01-17T06:14:33.181Z,57.33
2019-01-17T06:17:04.018Z,61.63
2019-01-17T06:19:34.616Z,61.83
2019-01-17T06:22:05.179Z,72.10
2019-01-17T06:24:35.842Z,66.97
2019-01-17T06:27:06.859Z,75.93
2019-01-17T06:29:37.144Z,71.87
2019-01-17T06:32:08.097Z,123.10
2019-01-17T06:34:38.778Z,98.13
2019-01-17T06:37:09.098Z,129.23
2019-01-17T06:39:39.596Z,146.50
2019-01-17T06:42:09.935Z,149.53
2019-01-17T06:44:40.352Z,165.87
2019-01-17T06:47:10.832Z,133.20
2019-01-17T06:49:41.288Z,182.00
2019-01-17T06:52:12.267Z,206.63
2019-01-17T06:54:43.024Z,194.27
2019-01-17T06:57:13.364Z,163.47
2019-01-17T06:59:43.917Z,174.17
2019-01-17T07:02:14.533Z,173.10
2019-01-17T07:04:45.778Z,161.13
2019-01-17T07:07:16.363Z,137.47
2019-01-17T07:09:46.769Z,152.47
2019-01-17T07:12:17.239Z,155.83
2019-01-17T07:14:47.725Z,147.40
2019-01-17T07:17:18.273Z,141.73
2019-01-17T07:19:48.931Z,122.50
2019-01-17T07:22:19.596Z,120.10
2019-01-17T07:24:49.919Z,108.33
2019-01-17T07:27:20.616Z,116.70
2019-01-17T07:29:51.247Z,106.67
2019-01-17T07:32:21.760Z,105.47
2019-01-17T07:34:52.165Z,104.10
2019-01-17T07:37:23.003Z,115.37
2019-01-17T07:39:53.389Z,120.53
2019-01-17T07:42:23.701Z,115.27
2019-01-17T07:44:54.083Z,105.50
2019-01-17T07:47:24.718Z,98.83
2019-01-17T07:49:55.489Z,114.50
2019-01-17T07:52:25.828Z,103.17
2019-01-17T07:54:56.212Z,108.40
2019-01-17T07:57:26.805Z,100.30
2019-01-17T07:59:57.099Z,83.77
2019-01-17T08:02:27.572Z,76.40
2019-01-17T08:04:58.368Z,78.57
2019-01-17T08:07:29.077Z,71.47
2019-01-17T08:09:59.367Z,64.23
2019-01-17T08:12:29.783Z,57.87
2019-01-17T08:15:00.209Z,58.27
2019-01-17T08:17:30.745Z,64.07
2019-01-17T08:20:01.087Z,64.40
2019-01-17T08:22:31.383Z,55.20
2019-01-17T08:25:01.997Z,64.13
2019-01-17T08:27:32.369Z,49.60
2019-01-17T08:30:02.718Z,50.73
2019-01-17T08:32:33.466Z,40.80
2019-01-17T08:35:04.579Z,45.00
2019-01-17T08:37:34.849Z,37.43
2019-01-17T08:40:07.738Z,36.53
2019-01-17T08:42:38.120Z,41.50
2019-01-17T08:45:09.061Z,43.00
2019-01-17T08:47:39.466Z,35.77
2019-01-17T08:50:11.364Z,35.50
2019-01-17T08:52:42.202Z,45.50
2019-01-17T08:55:12.840Z,45.87
2019-01-17T08:57:43.433Z,51.53
2019-01-17T09:00:19.140Z,55.20
2019-01-17T09:02:49.861Z,46.50
2019-01-17T09:05:20.241Z,56.90
2019-01-17T09:07:53.063Z,57.47
2019-01-17T09:10:26.357Z,54.17
2019-01-17T09:12:56.689Z,53.10
2019-01-17T09:15:32.136Z,54.13
2019-01-17T09:18:03.187Z,66.60
2019-01-17T09:20:33.549Z,56.37
2019-01-17T09:23:04.693Z,55.43
2019-01-17T09:25:35.078Z,51.33
2019-01-17T09:28:05.576Z,55.20
2019-01-17T09:30:36.448Z,51.03
2019-01-17T09:33:06.758Z,49.67
2019-01-17T09:35:37.034Z,53.30
2019-01-17T09:38:07.907Z,53.57
2019-01-17T09:40:38.202Z,48.93
2019-01-17T09:43:08.522Z,76.87
2019-01-17T09:45:39.109Z,77.80
2019-01-17T09:48:09.657Z,93.97
2019-01-17T09:50:39.930Z,89.43
2019-01-17T09:53:10.911Z,95.50
2019-01-17T09:55:41.205Z,93.37
2019-01-17T09:58:11.924Z,90.67
2019-01-17T10:00:42.231Z,81.00
2019-01-17T10:03:12.903Z,97.90
2019-01-17T10:05:43.581Z,93.20
2019-01-17T10:08:13.930Z,98.27
2019-01-17T10:10:44.199Z,97.00
2019-01-17T10:13:14.611Z,91.20
2019-01-17T10:15:52.556Z,91.50
2019-01-17T10:19:18.183Z,98.27
2019-01-17T10:22:26.089Z,102.93
2019-01-17T10:25:19.937Z,97.47
2019-01-17T10:28:40.045Z,89.50
2019-01-17T10:31:57.646Z,80.53
2019-01-17T10:35:15.020Z,91.50
2019-01-17T10:38:10.602Z,91.83
2019-01-17T10:41:35.506Z,90.83
2019-01-17T10:44:36.948Z,86.13
2019-01-17T10:48:00.183Z,89.03
2019-01-17T10:51:12.267Z,79.73
2019-01-17T10:54:21.917Z,81.87
2019-01-17T10:57:51.402Z,77.17
2019-01-17T11:00:59.765Z,83.67
2019-01-17T11:04:01.761Z,84.83
2019-01-17T11:07:07.231Z,89.57
2019-01-17T11:10:21.372Z,74.07
2019-01-17T11:13:44.734Z,83.50
2019-01-17T11:16:54.341Z,79.73
2019-01-17T11:19:45.018Z,83.23
2019-01-17T11:22:53.697Z,80.27
2019-01-17T11:25:40.844Z,75.93
2019-01-17T11:28:58.748Z,82.23
2019-01-17T11:31:58.662Z,80.33
2019-01-17T11:35:16.035Z,78.47
2019-01-17T11:38:15.278Z,81.33
2019-01-17T11:41:20.577Z,67.70
2019-01-17T11:44:36.455Z,69.10
2019-01-17T11:47:32.790Z,76.73
2019-01-17T11:50:16.033Z,78.80
2019-01-17T11:53:12.384Z,82.73
2019-01-17T11:56:08.663Z,64.23
2019-01-17T11:59:16.395Z,69.83
2019-01-17T12:02:27.827Z,58.97
2019-01-17T12:04:56.577Z,70.70
2019-01-17T12:07:26.869Z,60.27
2019-01-17T12:09:57.389Z,59.83
2019-01-17T12:12:28.162Z,63.90
2019-01-17T12:14:59.699Z,82.73
2019-01-17T12:17:30.022Z,65.90
2019-01-17T12:20:00.891Z,64.83
2019-01-17T12:22:31.194Z,66.33
2019-01-17T12:25:01.924Z,66.93
2019-01-17T12:27:32.207Z,73.53
2019-01-17T12:30:02.766Z,64.67
2019-01-17T12:32:34.481Z,64.80
2019-01-17T12:35:05.082Z,62.03
2019-01-17T12:37:35.426Z,66.23
2019-01-17T12:40:07.563Z,61.00
2019-01-17T12:42:37.851Z,61.30
2019-01-17T12:45:09.464Z,66.50
2019-01-17T12:47:40.119Z,67.83
2019-01-17T12:50:14.806Z,71.93
2019-01-17T12:52:45.110Z,60.07
2019-01-17T12:55:16.241Z,67.40
2019-01-17T12:57:46.674Z,65.37
2019-01-17T13:00:20.184Z,62.00
2019-01-17T13:02:50.500Z,60.13
2019-01-17T13:05:20.847Z,68.73
2019-01-17T13:07:51.633Z,68.03
2019-01-17T13:10:22.212Z,64.10
2019-01-17T13:12:52.534Z,61.57
2019-01-17T13:15:23.273Z,57.23
2019-01-17T13:17:54.035Z,71.17
2019-01-17T13:20:24.524Z,62.83
2019-01-17T13:22:55.314Z,68.90
2019-01-17T13:25:26.106Z,63.70
2019-01-17T13:27:56.389Z,60.77
2019-01-17T13:30:26.921Z,58.23
2019-01-17T13:32:57.366Z,67.40
2019-01-17T13:35:27.837Z,70.13
2019-01-17T13:37:58.202Z,65.40
2019-01-17T13:40:28.802Z,69.37
2019-01-17T13:43:00.509Z,70.43
2019-01-17T13:45:31.205Z,69.07
2019-01-17T13:48:01.507Z,80.43
2019-01-17T13:50:32.154Z,82.60
2019-01-17T13:53:03.641Z,71.20
2019-01-17T13:55:34.024Z,63.57
2019-01-17T13:58:04.523Z,80.17
2019-01-17T14:00:34.888Z,66.33
2019-01-17T14:03:05.370Z,69.93
2019-01-17T14:05:35.763Z,63.63
2019-01-17T14:08:06.038Z,60.73
2019-01-17T14:10:36.562Z,58.33
2019-01-17T14:13:07.356Z,66.77
2019-01-17T14:15:39.691Z,68.70
2019-01-17T14:18:09.979Z,76.77
2019-01-17T14:20:40.734Z,57.07
2019-01-17T14:23:11.036Z,54.17
2019-01-17T14:25:41.456Z,52.73
2019-01-17T14:28:11.847Z,53.90
2019-01-17T14:30:42.445Z,69.50
2019-01-17T14:33:12.816Z,67.80
2019-01-17T14:35:43.187Z,71.60
2019-01-17T14:38:13.522Z,64.13
2019-01-17T14:40:44.256Z,54.13
2019-01-17T14:43:14.560Z,61.17
2019-01-17T14:45:44.970Z,68.77
2019-01-17T14:48:15.590Z,70.87
2019-01-17T14:50:46.037Z,76.10
2019-01-17T14:53:16.456Z,63.47
2019-01-17T14:55:47.043Z,71.57
2019-01-17T14:58:17.411Z,66.07
2019-01-17T15:00:47.697Z,67.83
2019-01-17T15:03:18.207Z,62.13
2019-01-17T15:05:48.573Z,72.60
2019-01-17T15:08:18.890Z,97.63
2019-01-17T15:10:49.230Z,89.50
2019-01-17T15:13:20.171Z,101.70
2019-01-17T15:15:50.485Z,106.73
2019-01-17T15:18:20.947Z,97.37
2019-01-17T15:20:51.894Z,102.00
2019-01-17T15:23:22.194Z,104.70
2019-01-17T15:25:52.777Z,98.60
2019-01-17T15:28:23.424Z,104.43
2019-01-17T15:30:53.785Z,108.07
2019-01-17T15:33:24.261Z,104.07
2019-01-17T15:35:54.966Z,124.40
2019-01-17T15:38:25.523Z,138.67
2019-01-17T15:40:57.185Z,126.53
2019-01-17T15:43:27.561Z,135.67
2019-01-17T15:45:57.883Z,143.10
2019-01-17T15:48:28.804Z,216.53
2019-01-17T15:50:59.304Z,244.40
2019-01-17T15:53:29.649Z,104.17
2019-01-17T15:56:00.313Z,105.17
2019-01-17T15:58:30.752Z,111.30
2019-01-17T16:01:01.059Z,112.40
2019-01-17T16:03:32.439Z,102.90
2019-01-17T16:06:03.252Z,125.40
2019-01-17T16:08:33.694Z,116.60
2019-01-17T16:11:04.171Z,104.70
2019-01-17T16:13:34.517Z,117.63
2019-01-17T16:16:05.518Z,116.63
2019-01-17T16:18:36.671Z,127.63
2019-01-17T16:21:06.972Z,118.23
2019-01-17T16:23:37.375Z,122.43
2019-01-17T16:26:08.290Z,120.20
2019-01-17T16:28:38.666Z,143.90
2019-01-17T16:31:09.051Z,132.80
2019-01-17T16:33:39.541Z,147.27
2019-01-17T16:36:09.939Z,153.03
2019-01-17T16:38:40.352Z,173.73
2019-01-17T16:41:10.834Z,167.20
2019-01-17T16:43:41.670Z,149.17
2019-01-17T16:46:12.354Z,165.70
2019-01-17T16:48:44.785Z,156.03
2019-01-17T16:51:15.232Z,116.70
2019-01-17T16:53:45.963Z,283.00
2019-01-17T16:56:16.587Z,159.70
2019-01-17T16:58:46.887Z,131.13
2019-01-17T17:01:17.566Z,150.47
2019-01-17T17:03:47.891Z,146.83
2019-01-17T17:06:18.189Z,157.60
2019-01-17T17:08:48.868Z,141.97
2019-01-17T17:11:19.559Z,149.23
2019-01-17T17:13:49.863Z,103.50
2019-01-17T17:16:20.559Z,125.27
2019-01-17T17:18:51.125Z,133.87
2019-01-17T17:21:21.412Z,122.77
2019-01-17T17:23:52.140Z,118.40
2019-01-17T17:26:23.017Z,115.03
2019-01-17T17:28:53.290Z,139.27
2019-01-17T17:31:23.687Z,146.83
2019-01-17T17:33:54.498Z,170.87
2019-01-17T17:36:24.815Z,160.53
2019-01-17T17:38:55.178Z,151.33
2019-01-17T17:41:26.039Z,159.27
2019-01-17T17:43:57.252Z,160.33
2019-01-17T17:46:28.027Z,169.17
2019-01-17T17:48:58.623Z,176.27
2019-01-17T17:51:29.065Z,180.10
2019-01-17T17:53:59.932Z,170.20
2019-01-17T17:56:30.234Z,169.40
2019-01-17T17:59:00.572Z,179.37
2019-01-17T18:01:34.105Z,183.40
2019-01-17T18:04:05.087Z,177.60
2019-01-17T18:06:35.390Z,186.00
2019-01-17T18:09:08.678Z,185.47
2019-01-17T18:11:39.267Z,191.20
2019-01-17T18:14:09.688Z,174.43
2019-01-17T18:16:40.144Z,184.33
2019-01-17T18:19:10.523Z,188.00
2019-01-17T18:21:41.100Z,183.70
2019-01-17T18:24:11.406Z,157.50
2019-01-17T18:26:41.731Z,158.37
2019-01-17T18:29:12.422Z,167.67
2019-01-17T18:31:42.742Z,165.90
2019-01-17T18:34:13.111Z,153.50
2019-01-17T18:36:44.781Z,145.50
2019-01-17T18:39:15.410Z,154.00
2019-01-17T18:41:45.720Z,133.20
2019-01-17T18:44:16.697Z,160.73
2019-01-17T18:46:47.558Z,153.40
2019-01-17T18:49:18.137Z,125.00
2019-01-17T18:51:48.663Z,138.30
2019-01-17T18:54:19.023Z,148.03
2019-01-17T18:56:49.625Z,152.80
2019-01-17T18:59:20.268Z,157.83
2019-01-17T19:01:50.555Z,128.57
2019-01-17T19:04:21.538Z,146.67
2019-01-17T19:06:52.299Z,149.90
2019-01-17T19:09:23.580Z,133.13
2019-01-17T19:11:53.955Z,152.77
2019-01-17T19:14:24.837Z,163.77
2019-01-17T19:16:55.133Z,230.70
2019-01-17T19:19:25.528Z,161.03
2019-01-17T19:21:56.269Z,371.87
2019-01-17T19:24:26.611Z,256.60
2019-01-17T19:26:56.946Z,251.20
2019-01-17T19:29:27.660Z,160.87
2019-01-17T19:31:58.006Z,153.40
2019-01-17T19:34:28.295Z,167.47
2019-01-17T19:36:59.244Z,160.23
2019-01-17T19:39:29.625Z,166.83
2019-01-17T19:41:59.923Z,169.20
2019-01-17T19:44:30.764Z,175.70
2019-01-17T19:47:01.291Z,159.17
2019-01-17T19:49:31.582Z,162.80
2019-01-17T19:52:02.064Z,143.37
2019-01-17T19:54:32.470Z,147.30
2019-01-17T19:57:03.075Z,155.63
2019-01-17T19:59:33.625Z,161.87
2019-01-17T20:02:04.123Z,145.57
2019-01-17T20:04:34.910Z,122.40
2019-01-17T20:07:05.997Z,114.47
2019-01-17T20:09:36.391Z,122.27
2019-01-17T20:12:07.113Z,137.90
2019-01-17T20:14:37.760Z,158.93
2019-01-17T20:17:08.039Z,161.23
2019-01-17T20:19:38.618Z,186.00
2019-01-17T20:22:09.592Z,136.77
2019-01-17T20:24:39.890Z,133.63
2019-01-17T20:27:11.239Z,139.17
2019-01-17T20:29:41.591Z,133.83
2019-01-17T20:32:18.647Z,126.20
2019-01-17T20:34:44.520Z,140.10
2019-01-17T20:37:14.842Z,125.70
2019-01-17T20:39:45.189Z,145.07
2019-01-17T20:42:15.888Z,131.67
2019-01-17T20:44:46.343Z,131.20
2019-01-17T20:47:16.758Z,117.07
2019-01-17T20:49:47.426Z,131.37
2019-01-17T20:52:18.017Z,119.63
2019-01-17T20:54:48.341Z,117.93
2019-01-17T20:57:19.078Z,117.03
2019-01-17T20:59:49.431Z,120.10
2019-01-17T21:02:21.554Z,113.20
2019-01-17T21:04:53.088Z,131.37
2019-01-17T21:07:23.546Z,118.03
2019-01-17T21:09:54.202Z,122.13
2019-01-17T21:12:24.674Z,135.77
2019-01-17T21:14:55.000Z,146.90
2019-01-17T21:17:25.784Z,136.80
2019-01-17T21:19:56.410Z,154.33
2019-01-17T21:22:26.892Z,165.33
2019-01-17T21:24:57.457Z,158.30
2019-01-17T21:27:27.852Z,150.33
2019-01-17T21:29:58.319Z,156.47
2019-01-17T21:32:28.822Z,150.63
2019-01-17T21:34:59.151Z,146.50
2019-01-17T21:37:29.998Z,162.60
2019-01-17T21:40:00.385Z,144.07
2019-01-17T21:42:30.728Z,136.03
2019-01-17T21:45:01.298Z,143.73
2019-01-17T21:47:31.746Z,133.87
2019-01-17T21:50:02.030Z,135.30
2019-01-17T21:52:32.419Z,125.63
2019-01-17T21:55:02.822Z,121.27
2019-01-17T21:57:33.122Z,111.43
2019-01-17T22:00:03.501Z,116.57
2019-01-17T22:02:33.948Z,119.67
2019-01-17T22:05:05.114Z,116.77
2019-01-17T22:07:37.495Z,125.37
2019-01-17T22:10:09.097Z,116.07
2019-01-17T22:12:39.593Z,125.13
2019-01-17T22:15:14.725Z,114.70
2019-01-17T22:17:45.243Z,116.97
2019-01-17T22:20:16.137Z,111.03
2019-01-17T22:22:46.651Z,116.07
2019-01-17T22:25:17.627Z,123.30
2019-01-17T22:27:48.938Z,126.20
2019-01-17T22:30:22.965Z,117.90
2019-01-17T22:32:53.504Z,107.77
2019-01-17T22:35:24.204Z,120.30
2019-01-17T22:37:54.595Z,143.00
2019-01-17T22:40:24.902Z,128.27
2019-01-17T22:42:56.363Z,118.53
2019-01-17T22:45:28.784Z,125.83
2019-01-17T22:47:59.076Z,120.40
2019-01-17T22:50:29.715Z,187.83
2019-01-17T22:53:00.108Z,121.67
2019-01-17T22:55:30.386Z,113.43
2019-01-17T22:58:01.104Z,107.93
2019-01-17T23:01:24.554Z,114.23
2019-01-17T23:03:56.004Z,113.13
2019-01-17T23:06:27.688Z,120.23
2019-01-17T23:08:58.026Z,118.33
2019-01-17T23:11:29.665Z,104.20
2019-01-17T23:14:00.273Z,99.80
2019-01-17T23:16:31.019Z,114.27
2019-01-17T23:19:01.679Z,99.07
2019-01-17T23:21:32.047Z,108.20
2019-01-17T23:24:02.524Z,94.13
2019-01-17T23:26:32.917Z,83.40
2019-01-17T23:29:03.682Z,84.37
2019-01-17T23:31:34.023Z,97.47
2019-01-17T23:34:04.568Z,80.43
2019-01-17T23:36:35.276Z,88.73
2019-01-17T23:39:08.367Z,81.23
2019-01-17T23:41:39.096Z,105.13
2019-01-17T23:44:09.839Z,96.70
2019-01-17T23:46:40.327Z,101.20
2019-01-17T23:49:10.615Z,93.63
2019-01-17T23:51:41.226Z,82.80
2019-01-17T23:54:11.586Z,87.60
2019-01-17T23:56:41.871Z,87.80
2019-01-17T23:59:12.500Z,92.03
